Time;durP1;ratioP1;P1;durP2;ratioP2;P2;SDS_P1;SDS_P2;PMS_P1;PMS_P2;Temp;Humidity;BMP_temperature;BMP_pressure;BME280_temperature;BME280_humidity;BME280_pressure;Samples;Min_cycle;Max_cycle;Signal;HPM_P1;HPM_P2
2021/11/15 00:01:48;;;;;;;;;;;12.70;99.90;;;;;;6146435;23;19904;-83
2021/11/15 00:04:15;;;;;;;;;;;12.80;99.90;;;;;;6121202;23;19929;-81
2021/11/15 00:06:40;;;;;;;;;;;12.80;99.90;;;;;;6144827;23;19909;-81
2021/11/15 00:09:07;;;;;;;;;;;12.70;99.90;;;;;;6145620;23;19916;-82
2021/11/15 00:11:33;;;;;;;;;;;12.70;99.90;;;;;;6145381;23;19905;-80
2021/11/15 00:13:59;;;;;;;;;;;12.70;99.90;;;;;;6119176;23;19905;-81
2021/11/15 00:16:24;;;;;;;;;;;12.60;99.90;;;;;;6137556;23;19909;-80
2021/11/15 00:18:50;;;;;;;;;;;12.60;99.90;;;;;;6137376;23;19911;-80
2021/11/15 00:21:16;;;;;;;;;;;12.70;99.90;;;;;;6136902;23;19912;-81
2021/11/15 00:23:42;;;;;;;;;;;12.70;99.90;;;;;;6141949;23;19905;-80
2021/11/15 00:26:07;;;;;;;;;;;12.80;99.90;;;;;;6143585;23;19908;-80
2021/11/15 00:28:33;;;;;;;;;;;12.80;99.90;;;;;;6143849;23;19905;-81
2021/11/15 00:30:58;;;;;;;;;;;12.80;99.90;;;;;;6144720;23;19905;-80
2021/11/15 00:33:24;;;;;;;;;;;12.90;99.90;;;;;;6144860;23;19916;-83
2021/11/15 00:35:50;;;;;;;;;;;13.00;99.90;;;;;;6118511;23;19928;-81
2021/11/15 00:38:16;;;;;;;;;;;13.00;99.90;;;;;;6144281;23;19929;-82
2021/11/15 00:40:41;;;;;;;;;;;13.00;99.90;;;;;;6145556;23;19952;-82
2021/11/15 00:43:07;;;;;;;;;;;13.10;99.90;;;;;;6144276;23;19905;-82
2021/11/15 00:45:34;;;;;;;;;;;13.10;99.90;;;;;;6143785;23;19924;-80
2021/11/15 00:48:00;;;;;;;;;;;13.10;99.90;;;;;;6143502;23;19945;-81
2021/11/15 00:50:26;;;;;;;;;;;13.00;99.90;;;;;;6144128;23;19912;-81
2021/11/15 00:52:52;;;;;;;;;;;13.00;99.90;;;;;;6146369;23;19929;-80
2021/11/15 00:55:19;;;;;;;;;;;12.80;99.90;;;;;;6147475;23;19920;-81
2021/11/15 00:57:45;;;;;;;;;;;12.70;99.90;;;;;;6144521;23;19909;-81
2021/11/15 01:00:12;;;;;;;;;;;12.60;99.90;;;;;;6142704;23;19939;-82
2021/11/15 01:02:37;;;;;;;;;;;12.50;99.90;;;;;;6146942;23;19909;-81
2021/11/15 01:05:04;;;;;;;;;;;12.50;99.90;;;;;;6143703;23;19912;-80
2021/11/15 01:07:29;;;;;;;;;;;12.60;99.90;;;;;;6118582;23;19909;-82
2021/11/15 01:09:55;;;;;;;;;;;12.60;99.90;;;;;;6144693;23;19912;-81
2021/11/15 01:12:21;;;;;;;;;;;12.50;99.90;;;;;;6145394;23;20113;-82
2021/11/15 01:14:46;;;;;;;;;;;12.40;99.90;;;;;;6144819;23;19951;-82
2021/11/15 01:17:12;;;;;;;;;;;12.40;99.90;;;;;;6144792;23;19905;-82
2021/11/15 01:19:38;;;;;;;;;;;12.40;99.90;;;;;;6145247;23;19960;-81
2021/11/15 01:22:04;;;;;;;;;;;12.40;99.90;;;;;;6144791;23;19912;-81
2021/11/15 01:24:29;;;;;;;;;;;12.30;99.90;;;;;;6145002;23;19933;-81
2021/11/15 01:26:55;;;;;;;;;;;12.30;99.90;;;;;;6144469;23;19909;-83
2021/11/15 01:29:21;;;;;;;;;;;12.20;99.90;;;;;;6145192;23;19912;-81
2021/11/15 01:31:46;;;;;;;;;;;12.20;99.90;;;;;;6144562;23;19909;-82
2021/11/15 01:34:12;;;;;;;;;;;12.20;99.90;;;;;;6145105;23;19912;-81
2021/11/15 01:36:38;;;;;;;;;;;12.20;99.90;;;;;;6144598;23;19909;-81
2021/11/15 01:39:04;;;;;;;;;;;12.20;99.90;;;;;;6143883;23;19905;-81
2021/11/15 01:41:38;;;;;;;;;;;12.20;99.90;;;;;;6144773;23;19916;-81
2021/11/15 01:44:29;;;;;;;;;;;12.20;99.90;;;;;;6117729;23;19929;-81
2021/11/15 01:47:08;;;;;;;;;;;12.20;99.90;;;;;;6143533;23;19909;-81
2021/11/15 01:49:34;;;;;;;;;;;12.20;99.90;;;;;;6118149;23;19905;-81
2021/11/15 01:52:00;;;;;;;;;;;12.30;99.90;;;;;;6143553;23;19980;-81
2021/11/15 01:54:28;;;;;;;;;;;12.40;99.90;;;;;;6144224;23;19936;-80
2021/11/15 01:56:54;;;;;;;;;;;12.40;99.90;;;;;;6144804;23;19906;-81
2021/11/15 01:59:20;;;;;;;;;;;12.50;99.90;;;;;;6144497;23;19931;-80
2021/11/15 02:01:45;;;;;;;;;;;12.50;99.90;;;;;;6144524;23;19905;-81
2021/11/15 02:04:11;;;;;;;;;;;12.60;99.90;;;;;;6144412;23;19909;-81
2021/11/15 02:06:37;;;;;;;;;;;12.60;99.90;;;;;;6143528;23;19952;-80
2021/11/15 02:09:04;;;;;;;;;;;12.70;99.90;;;;;;6143695;23;19905;-80
2021/11/15 02:11:30;;;;;;;;;;;12.80;99.90;;;;;;6143755;23;19904;-81
2021/11/15 02:13:55;;;;;;;;;;;12.90;99.90;;;;;;6144127;23;19929;-82
2021/11/15 02:16:21;;;;;;;;;;;13.00;99.90;;;;;;6144173;23;19912;-82
2021/11/15 02:18:47;;;;;;;;;;;13.00;99.90;;;;;;6144339;23;19905;-80
2021/11/15 02:21:13;;;;;;;;;;;13.00;99.90;;;;;;6143985;23;19905;-82
2021/11/15 02:23:40;;;;;;;;;;;13.00;99.90;;;;;;6143685;23;19905;-81
2021/11/15 02:26:07;;;;;;;;;;;13.10;99.90;;;;;;6117981;23;19909;-81
2021/11/15 02:28:38;;;;;;;;;;;13.20;99.90;;;;;;6145044;23;19905;-82
2021/11/15 02:31:04;;;;;;;;;;;13.20;99.90;;;;;;6145105;23;19952;-80
2021/11/15 02:33:31;;;;;;;;;;;13.20;99.90;;;;;;6143699;23;20314;-82
2021/11/15 02:36:00;;;;;;;;;;;13.20;99.90;;;;;;6144385;23;19911;-81
2021/11/15 02:38:25;;;;;;;;;;;13.20;99.90;;;;;;6117571;23;19905;-81
2021/11/15 02:40:51;;;;;;;;;;;13.20;99.90;;;;;;6143124;23;19939;-82
2021/11/15 02:43:17;;;;;;;;;;;13.30;99.90;;;;;;6143415;23;19905;-82
2021/11/15 02:45:43;;;;;;;;;;;13.20;99.90;;;;;;6143322;23;19913;-81
2021/11/15 02:48:08;;;;;;;;;;;13.10;99.90;;;;;;6143615;23;19909;-82
2021/11/15 02:50:34;;;;;;;;;;;13.10;99.90;;;;;;6143576;23;19928;-80
2021/11/15 02:53:01;;;;;;;;;;;13.10;99.90;;;;;;6144196;23;19905;-81
2021/11/15 02:55:27;;;;;;;;;;;13.00;99.90;;;;;;6120312;23;20430;-81
2021/11/15 02:57:54;;;;;;;;;;;13.00;99.90;;;;;;6145550;23;19909;-81
2021/11/15 03:00:27;;;;;;;;;;;13.00;99.90;;;;;;6145050;23;19961;-81
2021/11/15 03:02:56;;;;;;;;;;;13.00;99.90;;;;;;6143934;23;19964;-81
2021/11/15 03:05:26;;;;;;;;;;;13.00;99.90;;;;;;6145482;23;19905;-81
2021/11/15 03:07:52;;;;;;;;;;;12.90;99.90;;;;;;6146225;23;20318;-81
2021/11/15 03:10:18;;;;;;;;;;;12.90;99.90;;;;;;6145672;23;19912;-83
2021/11/15 03:12:44;;;;;;;;;;;12.90;99.90;;;;;;6119748;23;20098;-82
2021/11/15 03:15:19;;;;;;;;;;;12.90;99.90;;;;;;6144831;23;19908;-82
2021/11/15 03:17:50;;;;;;;;;;;12.90;99.90;;;;;;6143323;23;19908;-83
2021/11/15 03:20:16;;;;;;;;;;;12.90;99.90;;;;;;6143084;23;20326;-80
2021/11/15 03:22:41;;;;;;;;;;;12.90;99.90;;;;;;6143824;23;19911;-80
2021/11/15 03:25:07;;;;;;;;;;;12.70;99.90;;;;;;6143834;23;19956;-81
2021/11/15 03:27:34;;;;;;;;;;;12.70;99.90;;;;;;6143677;23;20016;-81
2021/11/15 03:30:00;;;;;;;;;;;12.70;99.90;;;;;;6143770;23;19957;-80
2021/11/15 03:32:26;;;;;;;;;;;12.70;99.90;;;;;;6143476;23;19905;-80
2021/11/15 03:34:52;;;;;;;;;;;12.60;99.90;;;;;;6143940;23;19925;-81
2021/11/15 03:37:17;;;;;;;;;;;12.60;99.90;;;;;;6133610;23;20037;-81
2021/11/15 03:39:43;;;;;;;;;;;12.60;99.90;;;;;;6133993;23;19905;-81
2021/11/15 03:42:09;;;;;;;;;;;12.50;99.90;;;;;;6134187;23;19905;-81
2021/11/15 03:44:35;;;;;;;;;;;12.50;99.90;;;;;;6132468;23;19917;-81
2021/11/15 03:47:00;;;;;;;;;;;12.50;99.90;;;;;;6135334;23;19908;-81
2021/11/15 03:49:26;;;;;;;;;;;12.50;99.90;;;;;;6137355;23;19905;-81
2021/11/15 03:51:52;;;;;;;;;;;12.50;99.90;;;;;;6138823;23;19940;-80
2021/11/15 03:54:17;;;;;;;;;;;12.40;99.90;;;;;;6140660;23;19905;-81
2021/11/15 03:56:43;;;;;;;;;;;12.50;99.90;;;;;;6138672;23;19929;-82
2021/11/15 03:59:11;;;;;;;;;;;12.50;99.90;;;;;;6140852;23;19952;-80
2021/11/15 04:01:38;;;;;;;;;;;12.50;99.90;;;;;;6143575;23;19911;-82
2021/11/15 04:04:07;;;;;;;;;;;12.50;99.90;;;;;;6144297;23;19956;-82
2021/11/15 04:06:38;;;;;;;;;;;12.50;99.90;;;;;;6144580;23;19909;-81
2021/11/15 04:09:06;;;;;;;;;;;12.60;99.90;;;;;;6144489;23;19908;-82
2021/11/15 04:11:32;;;;;;;;;;;12.60;99.90;;;;;;6144627;23;19911;-82
2021/11/15 04:14:01;;;;;;;;;;;12.70;99.90;;;;;;6144417;23;19905;-82
2021/11/15 04:16:26;;;;;;;;;;;12.70;99.90;;;;;;6144010;23;19905;-80
2021/11/15 04:18:55;;;;;;;;;;;12.60;99.90;;;;;;6143742;23;19905;-81
2021/11/15 04:21:22;;;;;;;;;;;12.60;99.90;;;;;;6144855;23;19921;-82
2021/11/15 04:23:47;;;;;;;;;;;12.60;99.90;;;;;;6144896;23;19900;-81
2021/11/15 04:26:13;;;;;;;;;;;12.60;99.90;;;;;;6144592;23;19912;-82
2021/11/15 04:28:39;;;;;;;;;;;12.60;99.90;;;;;;6145148;23;19916;-83
2021/11/15 04:31:04;;;;;;;;;;;12.60;99.90;;;;;;6145344;23;19908;-81
2021/11/15 04:33:30;;;;;;;;;;;12.60;99.90;;;;;;6125106;23;19901;-80
2021/11/15 04:35:56;;;;;;;;;;;12.70;99.90;;;;;;6128347;23;19960;-80
2021/11/15 04:38:22;;;;;;;;;;;12.70;99.90;;;;;;6128310;23;19897;-80
2021/11/15 04:40:47;;;;;;;;;;;12.70;99.90;;;;;;6153666;23;19897;-80
2021/11/15 04:43:13;;;;;;;;;;;12.70;99.90;;;;;;6143363;23;19909;-80
2021/11/15 04:45:39;;;;;;;;;;;12.70;99.90;;;;;;6129102;23;20295;-81
2021/11/15 04:48:05;;;;;;;;;;;12.70;99.90;;;;;;6107351;23;19959;-80
2021/11/15 04:50:32;;;;;;;;;;;12.70;99.90;;;;;;6113382;23;19966;-80
2021/11/15 04:52:57;;;;;;;;;;;12.50;99.90;;;;;;6153109;23;19897;-80
2021/11/15 04:55:23;;;;;;;;;;;12.40;99.90;;;;;;6153317;23;19897;-80
2021/11/15 04:57:49;;;;;;;;;;;12.40;99.90;;;;;;6152781;23;19917;-80
2021/11/15 05:00:18;;;;;;;;;;;12.40;99.90;;;;;;6152888;23;19953;-80
2021/11/15 05:02:47;;;;;;;;;;;12.40;99.90;;;;;;6124245;23;19909;-81
2021/11/15 05:05:13;;;;;;;;;;;12.30;99.90;;;;;;6143501;23;20250;-81
2021/11/15 05:07:39;;;;;;;;;;;12.30;99.90;;;;;;6117115;23;19916;-81
2021/11/15 05:10:05;;;;;;;;;;;12.30;99.90;;;;;;6144555;23;19957;-82
2021/11/15 05:12:35;;;;;;;;;;;12.30;99.90;;;;;;6118487;23;19905;-82
2021/11/15 05:15:01;;;;;;;;;;;12.20;99.90;;;;;;6143369;23;19909;-82
2021/11/15 05:17:27;;;;;;;;;;;12.10;99.90;;;;;;6142847;23;20227;-81
2021/11/15 05:19:52;;;;;;;;;;;12.00;99.90;;;;;;6142088;23;19916;-81
2021/11/15 05:22:18;;;;;;;;;;;12.10;99.90;;;;;;6142961;23;20252;-81
2021/11/15 05:24:44;;;;;;;;;;;12.10;99.90;;;;;;6143153;23;19905;-81
2021/11/15 05:27:09;;;;;;;;;;;12.10;99.90;;;;;;6143538;23;20419;-81
2021/11/15 05:29:35;;;;;;;;;;;12.10;99.90;;;;;;6143931;23;20318;-81
2021/11/15 05:32:01;;;;;;;;;;;12.10;99.90;;;;;;6142945;23;19905;-81
2021/11/15 05:34:26;;;;;;;;;;;12.10;99.90;;;;;;6112875;23;19996;-83
2021/11/15 05:36:52;;;;;;;;;;;12.10;99.90;;;;;;6134512;23;19932;-81
2021/11/15 05:39:17;;;;;;;;;;;12.10;99.90;;;;;;6138606;23;19911;-81
2021/11/15 05:41:43;;;;;;;;;;;12.00;99.90;;;;;;6141119;23;19897;-81
2021/11/15 05:44:09;;;;;;;;;;;12.00;99.90;;;;;;6142721;23;20109;-81
2021/11/15 05:46:34;;;;;;;;;;;12.00;99.90;;;;;;6143105;23;20226;-81
2021/11/15 05:49:00;;;;;;;;;;;12.00;99.90;;;;;;6142977;23;19909;-81
2021/11/15 05:51:26;;;;;;;;;;;12.00;99.90;;;;;;6143551;23;19965;-81
2021/11/15 05:53:51;;;;;;;;;;;12.00;99.90;;;;;;6144217;23;19905;-82
2021/11/15 05:56:17;;;;;;;;;;;12.00;99.90;;;;;;6143534;23;19920;-81
2021/11/15 05:58:43;;;;;;;;;;;12.00;99.90;;;;;;6119011;23;19905;-81
2021/11/15 06:01:08;;;;;;;;;;;12.00;99.90;;;;;;6144095;23;19944;-81
2021/11/15 06:03:34;;;;;;;;;;;12.00;99.90;;;;;;6143111;23;19941;-80
2021/11/15 06:06:00;;;;;;;;;;;11.90;99.90;;;;;;6143565;23;20289;-80
2021/11/15 06:08:26;;;;;;;;;;;11.90;99.90;;;;;;6144980;23;19905;-83
2021/11/15 06:10:53;;;;;;;;;;;12.00;99.90;;;;;;6144073;23;19912;-81
2021/11/15 06:13:19;;;;;;;;;;;12.00;99.90;;;;;;6144073;23;19960;-81
2021/11/15 06:15:47;;;;;;;;;;;12.00;99.90;;;;;;6118114;23;19908;-80
2021/11/15 06:18:14;;;;;;;;;;;12.00;99.90;;;;;;6118174;23;19988;-79
2021/11/15 06:20:40;;;;;;;;;;;11.90;99.90;;;;;;6144055;23;19905;-80
2021/11/15 06:23:06;;;;;;;;;;;11.90;99.90;;;;;;6143581;23;19965;-83
2021/11/15 06:25:34;;;;;;;;;;;12.00;99.90;;;;;;6117402;23;19909;-81
2021/11/15 06:28:00;;;;;;;;;;;12.10;99.90;;;;;;6144125;23;19916;-81
2021/11/15 06:30:25;;;;;;;;;;;12.00;99.90;;;;;;6143213;23;19909;-82
2021/11/15 06:32:51;;;;;;;;;;;12.00;99.90;;;;;;6143075;23;19905;-81
2021/11/15 06:35:17;;;;;;;;;;;12.00;99.90;;;;;;6142441;23;19953;-82
2021/11/15 06:37:43;;;;;;;;;;;12.10;99.90;;;;;;6142082;23;19912;-82
2021/11/15 06:40:10;;;;;;;;;;;12.20;99.90;;;;;;6141867;23;20358;-81
2021/11/15 06:42:36;;;;;;;;;;;12.20;99.90;;;;;;6142187;23;19931;-81
2021/11/15 06:45:03;;;;;;;;;;;12.20;99.90;;;;;;6142249;23;19919;-82
2021/11/15 06:47:33;;;;;;;;;;;12.20;99.90;;;;;;6144976;23;19933;-80
2021/11/15 06:49:59;;;;;;;;;;;12.10;99.90;;;;;;6146035;23;19920;-80
2021/11/15 06:52:25;;;;;;;;;;;12.10;99.90;;;;;;6141645;23;19913;-81
2021/11/15 06:54:51;;;;;;;;;;;12.10;99.90;;;;;;6142523;23;19913;-80
2021/11/15 06:57:17;;;;;;;;;;;12.20;99.90;;;;;;6143436;23;19909;-81
2021/11/15 06:59:43;;;;;;;;;;;12.20;99.90;;;;;;6117339;23;19909;-81
2021/11/15 07:02:09;;;;;;;;;;;12.10;99.90;;;;;;6143008;23;19905;-80
2021/11/15 07:04:35;;;;;;;;;;;12.10;99.90;;;;;;6143147;23;19919;-80
2021/11/15 07:07:00;;;;;;;;;;;12.20;99.90;;;;;;6142269;23;19909;-80
2021/11/15 07:09:26;;;;;;;;;;;12.10;99.90;;;;;;6142122;23;19912;-80
2021/11/15 07:11:52;;;;;;;;;;;12.10;99.90;;;;;;6141237;23;19905;-80
2021/11/15 07:14:18;;;;;;;;;;;12.10;99.90;;;;;;6141977;23;20282;-80
2021/11/15 07:16:44;;;;;;;;;;;12.10;99.90;;;;;;6140900;23;19905;-83
2021/11/15 07:19:09;;;;;;;;;;;12.20;99.90;;;;;;6142467;23;19904;-81
2021/11/15 07:21:35;;;;;;;;;;;12.20;99.90;;;;;;6143288;23;19909;-81
2021/11/15 07:24:01;;;;;;;;;;;12.20;99.90;;;;;;6143054;23;19914;-81
2021/11/15 07:26:27;;;;;;;;;;;12.10;99.90;;;;;;6143410;23;19953;-80
2021/11/15 07:28:53;;;;;;;;;;;12.10;99.90;;;;;;6138510;23;19905;-80
2021/11/15 07:31:18;;;;;;;;;;;12.10;99.90;;;;;;6135273;23;20326;-80
2021/11/15 07:33:44;;;;;;;;;;;12.10;99.90;;;;;;6136327;23;19959;-81
2021/11/15 07:36:10;;;;;;;;;;;12.20;99.90;;;;;;6135784;23;19912;-81
2021/11/15 07:38:36;;;;;;;;;;;12.20;99.90;;;;;;6143753;23;19904;-80
2021/11/15 07:41:02;;;;;;;;;;;12.20;99.90;;;;;;6144372;23;19911;-80
2021/11/15 07:43:27;;;;;;;;;;;12.20;99.90;;;;;;6146921;23;19916;-80
2021/11/15 07:45:53;;;;;;;;;;;12.10;99.90;;;;;;6149520;23;19913;-80
2021/11/15 07:48:18;;;;;;;;;;;12.20;99.90;;;;;;6150469;23;19932;-80
2021/11/15 07:50:44;;;;;;;;;;;12.20;99.90;;;;;;6146510;23;19913;-80
2021/11/15 07:53:10;;;;;;;;;;;12.20;99.90;;;;;;6144229;23;19905;-80
2021/11/15 07:55:36;;;;;;;;;;;12.20;99.90;;;;;;6132978;23;20293;-80
2021/11/15 07:58:04;;;;;;;;;;;12.20;99.90;;;;;;6138684;23;19919;-80
2021/11/15 08:00:30;;;;;;;;;;;12.20;99.90;;;;;;6143092;23;19905;-83
2021/11/15 08:02:56;;;;;;;;;;;12.30;99.90;;;;;;6145078;23;19932;-82
2021/11/15 08:05:22;;;;;;;;;;;12.20;99.90;;;;;;6145889;23;19909;-80
2021/11/15 08:07:48;;;;;;;;;;;12.30;99.90;;;;;;6144389;23;19909;-80
2021/11/15 08:10:15;;;;;;;;;;;12.30;99.90;;;;;;6140857;23;19905;-81
2021/11/15 08:12:42;;;;;;;;;;;12.40;99.90;;;;;;6138894;23;19921;-81
2021/11/15 08:15:09;;;;;;;;;;;12.50;99.90;;;;;;6134332;23;20322;-73
2021/11/15 08:17:38;;;;;;;;;;;12.50;99.90;;;;;;6126845;23;19943;-73
2021/11/15 08:20:05;;;;;;;;;;;12.60;99.90;;;;;;6125604;23;19923;-75
2021/11/15 08:22:30;;;;;;;;;;;12.60;99.90;;;;;;6100053;23;19911;-74
2021/11/15 08:24:59;;;;;;;;;;;12.60;99.90;;;;;;6127391;23;19980;-75
2021/11/15 08:27:24;;;;;;;;;;;12.70;99.90;;;;;;6124834;23;20003;-74
2021/11/15 08:29:50;;;;;;;;;;;12.70;99.90;;;;;;6126112;23;19943;-75
2021/11/15 08:32:17;;;;;;;;;;;12.90;99.90;;;;;;6126945;23;19905;-76
2021/11/15 08:34:43;;;;;;;;;;;12.90;99.90;;;;;;6127393;23;19909;-73
2021/11/15 08:37:09;;;;;;;;;;;13.10;99.90;;;;;;6126760;23;19905;-74
2021/11/15 08:39:35;;;;;;;;;;;13.10;99.90;;;;;;6099678;23;19991;-75
2021/11/15 08:42:02;;;;;;;;;;;13.20;99.90;;;;;;6126488;23;20281;-74
2021/11/15 08:44:28;;;;;;;;;;;13.10;99.90;;;;;;6125944;23;19917;-74
2021/11/15 08:46:55;;;;;;;;;;;13.20;99.90;;;;;;6126390;23;20342;-75
2021/11/15 08:49:22;;;;;;;;;;;13.20;99.90;;;;;;6125811;23;20310;-76
2021/11/15 08:51:48;;;;;;;;;;;13.10;99.90;;;;;;6126991;23;19911;-75
2021/11/15 08:54:16;;;;;;;;;;;13.20;99.90;;;;;;6126195;23;19909;-75
2021/11/15 08:56:42;;;;;;;;;;;13.20;99.90;;;;;;6125968;23;19928;-75
2021/11/15 08:59:07;;;;;;;;;;;13.20;99.90;;;;;;6125804;23;19949;-75
2021/11/15 09:01:33;;;;;;;;;;;13.10;99.90;;;;;;6126731;23;20383;-74
2021/11/15 09:03:59;;;;;;;;;;;13.20;99.90;;;;;;6124521;23;19924;-75
2021/11/15 09:06:30;;;;;;;;;;;13.10;99.90;;;;;;6126563;23;19917;-76
2021/11/15 09:08:56;;;;;;;;;;;13.10;99.90;;;;;;6127626;23;19977;-76
2021/11/15 09:11:22;;;;;;;;;;;13.10;99.90;;;;;;6126524;23;19908;-76
2021/11/15 09:13:48;;;;;;;;;;;13.10;99.90;;;;;;6125048;23;20317;-76
2021/11/15 09:16:15;;;;;;;;;;;13.30;99.90;;;;;;6126798;23;19962;-75
2021/11/15 09:18:42;;;;;;;;;;;13.30;99.90;;;;;;6127557;23;19905;-76
2021/11/15 09:21:08;;;;;;;;;;;13.30;99.90;;;;;;6126878;23;19905;-75
2021/11/15 09:23:35;;;;;;;;;;;13.40;99.90;;;;;;6127105;23;20242;-74
2021/11/15 09:26:02;;;;;;;;;;;13.30;99.90;;;;;;6126050;23;19931;-79
2021/11/15 09:28:28;;;;;;;;;;;13.40;99.90;;;;;;6126404;23;19912;-75
2021/11/15 09:30:54;;;;;;;;;;;13.40;99.90;;;;;;6126134;23;19905;-75
2021/11/15 09:33:19;;;;;;;;;;;13.40;99.90;;;;;;6125944;23;19905;-74
2021/11/15 09:35:48;;;;;;;;;;;13.40;99.90;;;;;;6127376;23;19912;-75
2021/11/15 09:38:18;;;;;;;;;;;13.40;99.90;;;;;;6126880;23;19905;-75
2021/11/15 09:40:45;;;;;;;;;;;13.30;99.90;;;;;;6126843;23;20035;-75
2021/11/15 09:43:10;;;;;;;;;;;13.20;99.90;;;;;;6127066;23;19988;-77
2021/11/15 09:45:36;;;;;;;;;;;13.10;99.90;;;;;;6126640;23;19913;-76
2021/11/15 09:48:02;;;;;;;;;;;13.00;99.90;;;;;;6126280;23;19909;-76
2021/11/15 09:50:27;;;;;;;;;;;13.00;99.90;;;;;;6126612;23;20334;-75
2021/11/15 09:52:53;;;;;;;;;;;13.00;99.90;;;;;;6127256;23;19905;-75
2021/11/15 09:55:19;;;;;;;;;;;13.00;99.90;;;;;;6127255;23;19905;-75
2021/11/15 09:57:46;;;;;;;;;;;13.00;99.90;;;;;;6101238;23;20248;-75
2021/11/15 10:00:20;;;;;;;;;;;13.10;99.90;;;;;;6127138;23;20222;-76
2021/11/15 10:02:46;;;;;;;;;;;13.20;99.90;;;;;;6101056;23;19933;-74
2021/11/15 10:05:11;;;;;;;;;;;13.20;99.90;;;;;;6129174;23;19905;-74
2021/11/15 10:07:40;;;;;;;;;;;13.30;99.90;;;;;;6123762;23;19920;-75
2021/11/15 10:10:25;;;;;;;;;;;13.50;99.90;;;;;;6125637;23;20032;-74
2021/11/15 10:13:09;;;;;;;;;;;13.70;99.90;;;;;;6127247;23;19905;-75
2021/11/15 10:15:45;;;;;;;;;;;13.70;99.90;;;;;;6127595;23;19961;-76
2021/11/15 10:18:14;;;;;;;;;;;13.60;99.90;;;;;;6100771;23;19909;-74
2021/11/15 10:20:44;;;;;;;;;;;13.50;99.90;;;;;;6127587;23;19928;-74
2021/11/15 10:23:28;;;;;;;;;;;13.60;99.90;;;;;;6127041;23;19905;-75
2021/11/15 10:25:58;;;;;;;;;;;13.50;99.90;;;;;;6126921;23;20372;-76
2021/11/15 10:28:27;;;;;;;;;;;13.60;99.90;;;;;;6126521;23;19915;-75
2021/11/15 10:30:53;;;;;;;;;;;13.70;99.90;;;;;;6101393;23;19909;-75
2021/11/15 10:33:19;;;;;;;;;;;13.80;99.90;;;;;;6125814;23;20192;-75
2021/11/15 10:35:49;;;;;;;;;;;13.90;99.90;;;;;;6123832;23;19995;-77
2021/11/15 10:38:15;;;;;;;;;;;13.90;99.90;;;;;;6126687;23;19913;-75
2021/11/15 10:40:41;;;;;;;;;;;13.90;99.90;;;;;;6127702;23;19952;-76
2021/11/15 10:43:08;;;;;;;;;;;13.90;99.90;;;;;;6127737;23;19940;-76
2021/11/15 10:45:36;;;;;;;;;;;13.90;99.90;;;;;;6127447;23;20336;-75
2021/11/15 10:48:02;;;;;;;;;;;14.00;99.90;;;;;;6126228;23;19941;-77
2021/11/15 10:50:43;;;;;;;;;;;13.90;99.90;;;;;;6126875;23;19932;-76
2021/11/15 10:53:13;;;;;;;;;;;13.90;99.90;;;;;;6126767;23;19956;-76
2021/11/15 10:55:47;;;;;;;;;;;13.90;99.90;;;;;;6126595;23;19909;-77
2021/11/15 10:58:22;;;;;;;;;;;14.00;99.90;;;;;;6126299;23;19905;-75
2021/11/15 11:00:56;;;;;;;;;;;14.10;99.90;;;;;;6126794;23;19912;-75
2021/11/15 11:03:25;;;;;;;;;;;14.10;99.90;;;;;;6126533;23;19911;-76
2021/11/15 11:05:52;;;;;;;;;;;14.20;99.90;;;;;;6127263;23;19988;-75
2021/11/15 11:08:20;;;;;;;;;;;14.20;99.90;;;;;;6126272;23;19909;-75
2021/11/15 11:11:08;;;;;;;;;;;14.10;99.90;;;;;;6125821;23;20369;-75
2021/11/15 11:13:53;;;;;;;;;;;14.00;99.90;;;;;;6128304;23;19940;-75
2021/11/15 11:16:37;;;;;;;;;;;14.00;99.90;;;;;;6127964;23;19980;-76
2021/11/15 11:19:15;;;;;;;;;;;14.00;99.90;;;;;;6103800;23;19905;-76
2021/11/15 11:22:07;;;;;;;;;;;14.10;99.90;;;;;;6135446;23;19932;-76
2021/11/15 11:24:46;;;;;;;;;;;14.20;99.90;;;;;;6131552;23;20140;-76
2021/11/15 11:27:14;;;;;;;;;;;14.30;99.90;;;;;;6109706;23;19932;-76
2021/11/15 11:29:44;;;;;;;;;;;13.90;99.90;;;;;;6129193;23;19905;-78
2021/11/15 11:32:11;;;;;;;;;;;13.80;99.90;;;;;;6128493;23;19912;-78
2021/11/15 11:34:37;;;;;;;;;;;13.70;99.90;;;;;;6128519;23;19937;-75
2021/11/15 11:37:04;;;;;;;;;;;13.60;99.90;;;;;;6129372;23;19905;-74
2021/11/15 11:39:30;;;;;;;;;;;13.60;99.90;;;;;;6129505;23;19909;-76
2021/11/15 11:41:59;;;;;;;;;;;13.90;99.90;;;;;;6127782;23;19905;-76
2021/11/15 11:44:26;;;;;;;;;;;13.90;99.90;;;;;;6128988;23;19916;-76
2021/11/15 11:46:52;;;;;;;;;;;13.80;99.90;;;;;;6102065;23;19936;-74
2021/11/15 11:49:20;;;;;;;;;;;13.90;99.90;;;;;;6128729;23;19984;-75
2021/11/15 11:51:49;;;;;;;;;;;13.90;99.90;;;;;;6128191;23;19909;-75
2021/11/15 11:54:14;;;;;;;;;;;14.00;99.90;;;;;;6128647;23;19912;-76
2021/11/15 11:56:40;;;;;;;;;;;14.10;99.90;;;;;;6128098;23;19909;-75
2021/11/15 11:59:11;;;;;;;;;;;14.00;99.90;;;;;;6128021;23;20330;-75
2021/11/15 12:01:37;;;;;;;;;;;14.00;99.90;;;;;;6128520;23;19935;-77
2021/11/15 12:04:10;;;;;;;;;;;14.10;99.90;;;;;;6127886;23;19910;-77
2021/11/15 12:06:36;;;;;;;;;;;14.10;99.90;;;;;;6125480;23;19966;-75
2021/11/15 12:09:02;;;;;;;;;;;14.10;99.90;;;;;;6126145;23;20322;-75
2021/11/15 12:11:28;;;;;;;;;;;14.20;99.90;;;;;;6125700;23;19905;-75
2021/11/15 12:13:55;;;;;;;;;;;14.10;99.90;;;;;;6126003;23;19933;-75
2021/11/15 12:16:21;;;;;;;;;;;14.00;99.90;;;;;;6125238;23;19905;-74
2021/11/15 12:19:00;;;;;;;;;;;13.90;99.90;;;;;;6125926;23;19905;-75
2021/11/15 12:21:33;;;;;;;;;;;13.90;99.90;;;;;;6125279;23;19909;-75
2021/11/15 12:24:05;;;;;;;;;;;13.90;99.90;;;;;;6126673;23;20378;-74
2021/11/15 12:26:42;;;;;;;;;;;13.90;99.90;;;;;;6125243;23;19909;-75
2021/11/15 12:29:21;;;;;;;;;;;13.90;99.90;;;;;;6125496;23;20315;-75
2021/11/15 12:31:52;;;;;;;;;;;14.00;99.90;;;;;;6125959;23;19905;-76
2021/11/15 12:34:20;;;;;;;;;;;14.00;99.90;;;;;;6125610;23;19929;-74
2021/11/15 12:36:50;;;;;;;;;;;14.10;99.90;;;;;;6124393;23;19912;-74
2021/11/15 12:39:18;;;;;;;;;;;14.00;99.90;;;;;;6125016;23;19963;-77
2021/11/15 12:41:48;;;;;;;;;;;14.00;99.90;;;;;;6125738;23;19924;-72
2021/11/15 12:44:14;;;;;;;;;;;14.00;99.90;;;;;;6125376;23;19948;-73
2021/11/15 12:46:45;;;;;;;;;;;14.00;99.90;;;;;;6125164;23;19968;-77
2021/11/15 12:49:14;;;;;;;;;;;14.00;99.90;;;;;;6099976;23;19905;-75
2021/11/15 12:51:40;;;;;;;;;;;14.00;99.90;;;;;;6124775;23;19987;-76
2021/11/15 12:54:06;;;;;;;;;;;13.80;99.90;;;;;;6125213;23;19905;-75
2021/11/15 12:56:37;;;;;;;;;;;13.80;99.90;;;;;;6131416;23;19925;-76
2021/11/15 12:59:03;;;;;;;;;;;13.80;99.90;;;;;;6127234;23;19932;-74
2021/11/15 13:01:29;;;;;;;;;;;13.80;99.90;;;;;;6126427;23;19905;-74
2021/11/15 13:03:55;;;;;;;;;;;13.70;99.90;;;;;;6124201;23;20384;-74
2021/11/15 13:06:21;;;;;;;;;;;13.70;99.90;;;;;;6125275;23;19936;-75
2021/11/15 13:08:49;;;;;;;;;;;13.70;99.90;;;;;;6126314;23;19909;-75
2021/11/15 13:11:15;;;;;;;;;;;13.60;99.90;;;;;;6126000;23;19909;-75
2021/11/15 13:13:41;;;;;;;;;;;13.60;99.90;;;;;;6126519;23;20234;-74
2021/11/15 13:16:07;;;;;;;;;;;13.70;99.90;;;;;;6125432;23;19905;-75
2021/11/15 13:18:33;;;;;;;;;;;13.70;99.90;;;;;;6127017;23;19905;-75
2021/11/15 13:20:59;;;;;;;;;;;13.70;99.90;;;;;;6127132;23;19926;-76
2021/11/15 13:23:27;;;;;;;;;;;13.70;99.90;;;;;;6126227;23;19947;-75
2021/11/15 13:25:53;;;;;;;;;;;13.80;99.90;;;;;;6126625;23;20253;-76
2021/11/15 13:28:19;;;;;;;;;;;13.80;99.90;;;;;;6125801;23;19924;-79
2021/11/15 13:30:45;;;;;;;;;;;13.70;99.90;;;;;;6126824;23;19932;-76
2021/11/15 13:33:10;;;;;;;;;;;13.80;99.90;;;;;;6127474;23;19905;-76
2021/11/15 13:35:36;;;;;;;;;;;13.70;99.90;;;;;;6133887;23;20337;-75
2021/11/15 13:38:02;;;;;;;;;;;13.80;99.90;;;;;;6128794;23;19912;-76
2021/11/15 13:40:34;;;;;;;;;;;13.70;99.90;;;;;;6128337;23;19908;-75
2021/11/15 13:43:00;;;;;;;;;;;13.70;99.90;;;;;;6131573;23;19905;-76
2021/11/15 13:45:26;;;;;;;;;;;13.70;99.90;;;;;;6138687;23;19920;-76
2021/11/15 13:47:52;;;;;;;;;;;13.70;99.90;;;;;;6136698;23;19933;-76
2021/11/15 13:50:19;;;;;;;;;;;13.70;99.90;;;;;;6136815;23;19924;-76
2021/11/15 13:52:46;;;;;;;;;;;13.60;99.90;;;;;;6136016;23;20112;-76
2021/11/15 13:55:12;;;;;;;;;;;13.60;99.90;;;;;;6135270;23;19904;-77
2021/11/15 13:57:37;;;;;;;;;;;13.60;99.90;;;;;;6126155;23;19905;-76
2021/11/15 14:00:04;;;;;;;;;;;13.50;99.90;;;;;;6125757;23;20291;-75
2021/11/15 14:02:30;;;;;;;;;;;13.50;99.90;;;;;;6125243;23;19912;-75
2021/11/15 14:04:55;;;;;;;;;;;13.50;99.90;;;;;;6125277;23;19905;-74
2021/11/15 14:07:21;;;;;;;;;;;13.50;99.90;;;;;;6138253;23;19909;-77
2021/11/15 14:09:48;;;;;;;;;;;13.40;99.90;;;;;;6139487;23;19905;-76
2021/11/15 14:12:14;;;;;;;;;;;13.40;99.90;;;;;;6141743;23;20105;-77
2021/11/15 14:14:40;;;;;;;;;;;13.40;99.90;;;;;;6135686;23;19936;-75
2021/11/15 14:17:06;;;;;;;;;;;13.40;99.90;;;;;;6133351;23;19905;-75